createdAt,value
2018-05-23T00:00:38.080Z,14.90
2018-05-23T00:03:05.731Z,14.90
2018-05-23T00:05:33.392Z,14.90
2018-05-23T00:08:01.069Z,14.80
2018-05-23T00:10:28.709Z,14.80
2018-05-23T00:12:56.387Z,14.70
2018-05-23T00:15:24.018Z,14.70
2018-05-23T00:17:51.668Z,14.70
2018-05-23T00:20:19.330Z,14.70
2018-05-23T00:22:46.948Z,14.70
2018-05-23T00:25:14.610Z,14.70
2018-05-23T00:27:42.274Z,14.80
2018-05-23T00:30:09.943Z,14.80
2018-05-23T00:32:38.384Z,14.80
2018-05-23T00:35:06.057Z,14.80
2018-05-23T00:37:33.723Z,14.90
2018-05-23T00:40:01.355Z,14.90
2018-05-23T00:42:29.004Z,14.90
2018-05-23T00:44:56.670Z,14.90
2018-05-23T00:47:24.326Z,14.90
2018-05-23T00:49:52.007Z,14.90
2018-05-23T00:52:19.628Z,14.90
2018-05-23T00:54:59.041Z,14.80
2018-05-23T00:57:27.487Z,14.70
2018-05-23T00:59:55.112Z,14.70
2018-05-23T01:02:22.781Z,14.60
2018-05-23T01:04:50.401Z,14.50
2018-05-23T01:07:18.828Z,14.40
2018-05-23T01:09:46.491Z,14.40
2018-05-23T01:12:14.124Z,14.40
2018-05-23T01:14:41.780Z,14.30
2018-05-23T01:17:09.419Z,14.30
2018-05-23T01:19:37.107Z,14.20
2018-05-23T01:22:04.814Z,14.20
2018-05-23T01:24:32.434Z,14.10
2018-05-23T01:27:00.087Z,14.10
2018-05-23T01:29:27.700Z,14.00
2018-05-23T01:31:55.366Z,14.00
2018-05-23T01:34:23.022Z,14.00
2018-05-23T01:36:50.691Z,13.90
2018-05-23T01:39:18.365Z,13.90
2018-05-23T01:41:46.751Z,14.00
2018-05-23T01:44:14.399Z,14.00
2018-05-23T01:46:42.848Z,14.00
2018-05-23T01:49:22.402Z,14.00
2018-05-23T01:51:50.071Z,14.00
2018-05-23T01:54:18.455Z,14.10
2018-05-23T01:56:46.913Z,14.00
2018-05-23T01:59:14.586Z,14.00
2018-05-23T02:01:43.031Z,14.00
2018-05-23T02:04:10.704Z,14.00
2018-05-23T02:06:38.333Z,14.10
2018-05-23T02:09:06.083Z,14.10
2018-05-23T02:11:33.703Z,14.10
2018-05-23T02:14:01.413Z,14.00
2018-05-23T02:16:29.086Z,14.00
2018-05-23T02:18:56.726Z,13.90
2018-05-23T02:21:24.462Z,13.90
2018-05-23T02:23:52.854Z,13.80
2018-05-23T02:26:20.531Z,13.80
2018-05-23T02:28:48.195Z,13.70
2018-05-23T02:31:15.832Z,13.70
2018-05-23T02:33:43.500Z,13.60
2018-05-23T02:36:11.117Z,13.60
2018-05-23T02:38:38.777Z,13.50
2018-05-23T02:41:06.474Z,13.50
2018-05-23T02:43:34.112Z,13.60
2018-05-23T02:46:02.535Z,13.50
2018-05-23T02:48:30.166Z,13.50
2018-05-23T02:50:57.820Z,13.40
2018-05-23T02:53:26.263Z,13.40
2018-05-23T02:55:53.903Z,13.40
2018-05-23T02:58:21.569Z,13.40
2018-05-23T03:00:49.215Z,13.40
2018-05-23T03:03:16.886Z,13.50
2018-05-23T03:05:44.553Z,13.50
2018-05-23T03:08:12.176Z,13.50
2018-05-23T03:10:39.862Z,13.50
2018-05-23T03:13:07.498Z,13.50
2018-05-23T03:15:35.147Z,13.60
2018-05-23T03:18:02.815Z,13.70
2018-05-23T03:20:30.560Z,13.70
2018-05-23T03:22:58.991Z,13.90
2018-05-23T03:25:26.612Z,13.80
2018-05-23T03:27:54.323Z,13.90
2018-05-23T03:30:22.001Z,14.00
2018-05-23T03:32:50.396Z,14.10
2018-05-23T03:35:18.816Z,14.10
2018-05-23T03:37:46.459Z,14.10
2018-05-23T03:40:14.099Z,14.10
2018-05-23T03:42:41.754Z,14.10
2018-05-23T03:45:10.138Z,14.10
2018-05-23T03:47:37.800Z,14.10
2018-05-23T03:50:05.465Z,14.10
2018-05-23T03:52:33.119Z,14.10
2018-05-23T03:55:00.747Z,14.00
2018-05-23T03:57:28.413Z,14.00
2018-05-23T04:00:08.765Z,14.00
2018-05-23T04:02:48.243Z,13.90
2018-05-23T04:05:27.639Z,13.90
2018-05-23T04:07:56.202Z,14.00
2018-05-23T04:10:23.827Z,14.00
2018-05-23T04:12:51.451Z,14.00
2018-05-23T04:15:19.912Z,13.90
2018-05-23T04:17:47.550Z,13.90
2018-05-23T04:20:15.226Z,14.00
2018-05-23T04:22:42.874Z,14.00
2018-05-23T04:25:10.523Z,14.10
2018-05-23T04:27:38.146Z,14.10
2018-05-23T04:30:05.840Z,14.10
2018-05-23T04:32:33.455Z,14.20
2018-05-23T04:35:01.881Z,14.40
2018-05-23T04:37:29.585Z,14.40
2018-05-23T04:39:57.978Z,14.60
2018-05-23T04:42:26.402Z,14.60
2018-05-23T04:44:54.046Z,14.60
2018-05-23T04:47:21.726Z,14.70
2018-05-23T04:49:49.346Z,14.80
2018-05-23T04:52:17.009Z,14.90
2018-05-23T04:54:44.701Z,15.10
2018-05-23T04:57:12.311Z,15.10
2018-05-23T04:59:40.739Z,15.10
2018-05-23T05:02:08.370Z,15.10
2018-05-23T05:04:36.024Z,15.10
2018-05-23T05:07:03.653Z,15.10
2018-05-23T05:09:31.311Z,15.20
2018-05-23T05:11:58.948Z,15.20
2018-05-23T05:14:26.596Z,15.20
2018-05-23T05:16:54.206Z,15.30
2018-05-23T05:19:22.648Z,15.50
2018-05-23T05:21:50.299Z,15.50
2018-05-23T05:24:17.936Z,15.50
2018-05-23T05:26:45.592Z,15.50
2018-05-23T05:29:13.209Z,15.60
2018-05-23T05:31:41.634Z,15.60
2018-05-23T05:34:09.296Z,15.60
2018-05-23T05:36:36.958Z,15.70
2018-05-23T05:39:04.659Z,15.70
2018-05-23T05:41:32.309Z,15.60
2018-05-23T05:43:59.975Z,15.60
2018-05-23T05:46:27.587Z,15.70
2018-05-23T05:48:55.252Z,15.80
2018-05-23T05:51:22.870Z,15.90
2018-05-23T05:53:51.296Z,16.10
2018-05-23T05:56:18.931Z,16.00
2018-05-23T05:58:46.592Z,16.20
2018-05-23T06:01:14.252Z,16.30
2018-05-23T06:03:41.882Z,16.30
2018-05-23T06:06:09.535Z,16.40
2018-05-23T06:08:37.163Z,16.40
2018-05-23T06:11:04.845Z,16.50
2018-05-23T06:13:32.466Z,16.50
2018-05-23T06:16:00.132Z,16.60
2018-05-23T06:18:27.761Z,16.60
2018-05-23T06:20:56.194Z,16.80
2018-05-23T06:23:23.821Z,16.80
2018-05-23T06:25:51.486Z,17.00
2018-05-23T06:28:19.140Z,17.10
2018-05-23T06:30:46.793Z,17.20
2018-05-23T06:33:14.477Z,17.20
2018-05-23T06:35:42.145Z,17.20
2018-05-23T06:38:09.850Z,17.20
2018-05-23T06:40:38.255Z,17.30
2018-05-23T06:43:05.920Z,17.30
2018-05-23T06:45:33.576Z,17.30
2018-05-23T06:48:01.281Z,17.40
2018-05-23T06:50:28.931Z,17.40
2018-05-23T06:52:56.603Z,17.50
2018-05-23T06:55:24.263Z,17.50
2018-05-23T06:57:51.891Z,17.60
2018-05-23T07:00:19.547Z,17.70
2018-05-23T07:02:47.163Z,17.80
2018-05-23T07:05:14.825Z,17.80
2018-05-23T07:07:43.231Z,18.00
2018-05-23T07:10:11.024Z,18.00
2018-05-23T07:12:38.683Z,18.10
2018-05-23T07:15:06.331Z,18.20
2018-05-23T07:17:33.945Z,18.20
2018-05-23T07:20:01.622Z,18.20
2018-05-23T07:22:29.296Z,18.20
2018-05-23T07:24:57.003Z,18.20
2018-05-23T07:27:24.727Z,18.10
2018-05-23T07:29:52.362Z,18.10
2018-05-23T07:32:20.845Z,18.20
2018-05-23T07:34:49.241Z,18.10
2018-05-23T07:37:16.901Z,18.10
2018-05-23T07:39:44.519Z,18.20
2018-05-23T07:42:12.187Z,18.10
2018-05-23T07:44:39.847Z,18.10
2018-05-23T07:47:08.279Z,18.10
2018-05-23T07:49:35.929Z,18.10
2018-05-23T07:52:03.618Z,18.20
2018-05-23T07:54:31.355Z,18.30
2018-05-23T07:56:58.994Z,18.40
2018-05-23T07:59:26.645Z,18.50
2018-05-23T08:01:55.043Z,18.90
2018-05-23T08:04:22.685Z,18.80
2018-05-23T08:06:51.060Z,19.00
2018-05-23T08:09:18.710Z,19.10
2018-05-23T08:11:47.134Z,19.60
2018-05-23T08:14:14.808Z,19.50
2018-05-23T08:16:42.441Z,19.80
2018-05-23T08:19:10.102Z,20.30
2018-05-23T08:21:37.895Z,20.70
2018-05-23T08:24:05.573Z,20.80
2018-05-23T08:26:33.236Z,20.90
2018-05-23T08:29:00.862Z,21.00
2018-05-23T08:31:28.525Z,21.10
2018-05-23T08:33:56.166Z,21.30
2018-05-23T08:36:23.857Z,21.50
2018-05-23T08:38:51.507Z,21.50
2018-05-23T08:41:19.165Z,21.50
2018-05-23T08:43:46.788Z,21.60
2018-05-23T08:46:14.476Z,21.90
2018-05-23T08:48:42.096Z,22.20
2018-05-23T08:51:10.507Z,22.20
2018-05-23T08:53:38.146Z,22.20
2018-05-23T08:56:05.812Z,22.30
2018-05-23T08:58:33.426Z,22.20
2018-05-23T09:01:01.078Z,22.20
2018-05-23T09:03:28.719Z,22.20
2018-05-23T09:05:56.393Z,22.50
2018-05-23T09:08:24.039Z,22.60
2018-05-23T09:10:51.702Z,22.70
2018-05-23T09:13:19.413Z,22.50
2018-05-23T09:15:47.820Z,22.60
2018-05-23T09:18:15.498Z,22.50
2018-05-23T09:20:43.123Z,22.70
2018-05-23T09:23:10.773Z,23.10
2018-05-23T09:25:39.204Z,22.90
2018-05-23T09:28:06.865Z,22.90
2018-05-23T09:30:34.486Z,22.80
2018-05-23T09:33:02.142Z,23.00
2018-05-23T09:35:29.792Z,23.30
2018-05-23T09:37:58.229Z,23.50
2018-05-23T09:40:25.850Z,23.50
2018-05-23T09:42:53.507Z,23.60
2018-05-23T09:45:21.140Z,23.60
2018-05-23T09:47:49.577Z,23.60
2018-05-23T09:50:17.222Z,23.60
2018-05-23T09:52:44.879Z,23.50
2018-05-23T09:55:12.602Z,23.40
2018-05-23T09:57:40.215Z,23.30
2018-05-23T10:00:07.935Z,23.20
2018-05-23T10:02:35.636Z,23.20
2018-05-23T10:05:03.307Z,23.20
2018-05-23T10:07:30.954Z,23.20
2018-05-23T10:09:58.627Z,23.10
2018-05-23T10:12:26.259Z,22.90
2018-05-23T10:14:53.922Z,22.80
2018-05-23T10:17:21.561Z,22.90
2018-05-23T10:19:49.214Z,22.90
2018-05-23T10:22:16.878Z,23.30
2018-05-23T10:24:44.567Z,23.40
2018-05-23T10:27:12.240Z,23.40
2018-05-23T10:29:39.870Z,23.30
2018-05-23T10:32:07.530Z,23.30
2018-05-23T10:34:35.150Z,23.40
2018-05-23T10:37:03.605Z,23.30
2018-05-23T10:39:31.245Z,23.30
2018-05-23T10:41:58.927Z,23.30
2018-05-23T10:44:26.573Z,23.30
2018-05-23T10:46:54.267Z,23.10
2018-05-23T10:49:21.922Z,22.90
2018-05-23T10:51:49.562Z,22.60
2018-05-23T10:54:17.242Z,22.50
2018-05-23T10:56:44.869Z,22.50
2018-05-23T10:59:12.518Z,22.10
2018-05-23T11:01:40.193Z,22.00
2018-05-23T11:04:07.863Z,22.00
2018-05-23T11:06:35.498Z,22.10
2018-05-23T11:09:03.354Z,22.30
2018-05-23T11:11:30.972Z,22.60
2018-05-23T11:13:58.615Z,22.60
2018-05-23T11:16:26.262Z,22.70
2018-05-23T11:18:53.912Z,23.00
2018-05-23T11:21:21.566Z,23.10
2018-05-23T11:23:49.236Z,23.20
2018-05-23T11:26:16.877Z,23.10
2018-05-23T11:28:44.545Z,23.00
2018-05-23T11:31:12.169Z,22.90
2018-05-23T11:33:40.613Z,22.70
2018-05-23T11:36:08.272Z,22.70
2018-05-23T11:38:35.945Z,22.60
2018-05-23T11:41:03.611Z,22.60
2018-05-23T11:43:31.255Z,22.60
2018-05-23T11:45:58.930Z,22.70
2018-05-23T11:48:27.334Z,22.90
2018-05-23T11:50:54.981Z,22.90
2018-05-23T11:53:23.430Z,23.20
2018-05-23T11:55:51.091Z,23.20
2018-05-23T11:58:18.738Z,23.30
2018-05-23T12:00:46.390Z,23.30
2018-05-23T12:03:14.010Z,23.30
2018-05-23T12:05:41.660Z,23.30
2018-05-23T12:08:10.080Z,23.00
2018-05-23T12:10:37.857Z,23.00
2018-05-23T12:13:06.202Z,23.10
2018-05-23T12:15:33.827Z,23.20
2018-05-23T12:18:02.283Z,23.20
2018-05-23T12:20:29.917Z,23.20
2018-05-23T12:22:57.584Z,23.30
2018-05-23T12:25:25.195Z,23.30
2018-05-23T12:27:53.626Z,23.20
2018-05-23T12:30:21.238Z,23.20
2018-05-23T12:32:49.764Z,23.40
2018-05-23T12:35:17.418Z,23.40
2018-05-23T12:37:45.100Z,23.50
2018-05-23T12:40:12.790Z,23.50
2018-05-23T12:42:41.195Z,23.40
2018-05-23T12:45:08.853Z,23.40
2018-05-23T12:47:36.492Z,23.40
2018-05-23T12:50:04.958Z,23.40
2018-05-23T12:52:33.357Z,23.40
2018-05-23T12:55:01.788Z,23.40
2018-05-23T12:57:29.435Z,23.50
2018-05-23T12:59:57.121Z,23.40
2018-05-23T13:02:24.772Z,23.60
2018-05-23T13:04:52.499Z,23.70
2018-05-23T13:07:20.222Z,23.70
2018-05-23T13:09:48.631Z,23.60
2018-05-23T13:12:16.319Z,23.60
2018-05-23T13:14:43.955Z,23.80
2018-05-23T13:17:11.612Z,23.90
2018-05-23T13:19:39.230Z,23.90
2018-05-23T13:22:07.723Z,24.00
2018-05-23T13:24:36.108Z,24.00
2018-05-23T13:27:03.886Z,24.00
2018-05-23T13:29:31.537Z,24.00
2018-05-23T13:31:59.204Z,23.80
2018-05-23T13:34:26.871Z,23.80
2018-05-23T13:36:54.554Z,23.60
2018-05-23T13:39:22.218Z,23.70
2018-05-23T13:41:49.846Z,23.80
2018-05-23T13:44:17.527Z,23.90
2018-05-23T13:46:45.161Z,24.10
2018-05-23T13:49:12.808Z,24.40
2018-05-23T13:51:40.440Z,24.30
2018-05-23T13:54:08.107Z,24.20
2018-05-23T13:56:35.720Z,24.30
2018-05-23T13:59:03.435Z,24.30
2018-05-23T14:01:31.849Z,24.30
2018-05-23T14:03:59.520Z,24.30
2018-05-23T14:06:27.231Z,24.30
2018-05-23T14:08:54.866Z,24.20
2018-05-23T14:11:22.528Z,24.10
2018-05-23T14:13:50.152Z,24.10
2018-05-23T14:16:17.818Z,24.00
2018-05-23T14:18:45.458Z,23.90
2018-05-23T14:21:13.139Z,23.80
2018-05-23T14:23:40.774Z,23.80
2018-05-23T14:26:08.433Z,23.70
2018-05-23T14:28:36.194Z,23.70
2018-05-23T14:31:03.859Z,23.60
2018-05-23T14:33:39.571Z,23.50
2018-05-23T14:36:07.274Z,23.40
2018-05-23T14:38:34.952Z,23.40
2018-05-23T14:41:02.592Z,23.40
2018-05-23T14:43:30.308Z,23.40
2018-05-23T14:45:57.928Z,23.40
2018-05-23T14:48:25.583Z,23.30
2018-05-23T14:50:53.215Z,23.20
2018-05-23T14:53:20.875Z,23.20
2018-05-23T14:55:48.548Z,23.20
2018-05-23T14:58:16.223Z,23.10
2018-05-23T15:00:43.867Z,23.10
2018-05-23T15:03:11.550Z,23.10
2018-05-23T15:05:39.178Z,23.00
2018-05-23T15:08:06.854Z,22.90
2018-05-23T15:10:34.492Z,22.90
2018-05-23T15:13:02.924Z,22.80
2018-05-23T15:15:30.579Z,22.80
2018-05-23T15:17:58.244Z,22.80
2018-05-23T15:20:25.912Z,22.70
2018-05-23T15:22:53.565Z,22.70
2018-05-23T15:25:21.243Z,22.60
2018-05-23T15:27:48.867Z,22.60
2018-05-23T15:30:16.526Z,22.60
2018-05-23T15:32:44.160Z,22.60
2018-05-23T15:35:11.832Z,22.50
2018-05-23T15:37:39.507Z,22.50
2018-05-23T15:40:07.220Z,22.40
2018-05-23T15:42:34.887Z,22.40
2018-05-23T15:45:03.428Z,22.40
2018-05-23T15:47:31.092Z,22.40
2018-05-23T15:49:58.727Z,22.40
2018-05-23T15:52:26.410Z,22.40
2018-05-23T15:54:54.047Z,22.30
2018-05-23T15:57:21.734Z,22.30
2018-05-23T15:59:49.340Z,22.20
2018-05-23T16:02:17.770Z,22.20
2018-05-23T16:04:45.414Z,22.20
2018-05-23T16:07:13.110Z,22.20
2018-05-23T16:09:40.729Z,22.20
2018-05-23T16:12:09.242Z,22.10
2018-05-23T16:14:36.863Z,22.00
2018-05-23T16:17:04.638Z,22.00
2018-05-23T16:19:32.323Z,22.00
2018-05-23T16:22:00.008Z,22.00
2018-05-23T16:24:28.461Z,21.90
2018-05-23T16:26:56.106Z,21.90
2018-05-23T16:29:23.756Z,21.80
2018-05-23T16:31:51.406Z,21.80
2018-05-23T16:34:19.097Z,21.80
2018-05-23T16:36:46.718Z,21.80
2018-05-23T16:39:14.402Z,21.80
2018-05-23T16:41:42.074Z,21.80
2018-05-23T16:44:09.730Z,21.80
2018-05-23T16:46:37.402Z,21.80
2018-05-23T16:49:05.030Z,21.80
2018-05-23T16:51:32.685Z,21.80
2018-05-23T16:54:00.306Z,21.70
2018-05-23T16:56:28.757Z,21.70
2018-05-23T16:58:56.394Z,21.70
2018-05-23T17:01:24.065Z,21.70
2018-05-23T17:03:51.699Z,21.60
2018-05-23T17:06:19.400Z,21.60
2018-05-23T17:08:47.043Z,21.60
2018-05-23T17:11:14.752Z,21.50
2018-05-23T17:13:43.175Z,21.50
2018-05-23T17:16:10.830Z,21.50
2018-05-23T17:18:38.554Z,21.50
2018-05-23T17:21:06.138Z,21.50
2018-05-23T17:23:33.795Z,21.50
2018-05-23T17:26:01.435Z,21.40
2018-05-23T17:28:29.111Z,21.40
2018-05-23T17:30:56.767Z,21.40
2018-05-23T17:33:24.467Z,21.50
2018-05-23T17:35:52.100Z,21.40
2018-05-23T17:38:19.719Z,21.40
2018-05-23T17:40:47.391Z,21.40
2018-05-23T17:43:15.797Z,21.40
2018-05-23T17:45:43.465Z,21.40
2018-05-23T17:48:11.124Z,21.30
2018-05-23T17:50:38.779Z,21.30
2018-05-23T17:53:06.394Z,21.20
2018-05-23T17:55:34.059Z,21.20
2018-05-23T17:58:02.463Z,21.10
2018-05-23T18:00:30.298Z,21.10
2018-05-23T18:02:57.976Z,21.10
2018-05-23T18:05:26.395Z,21.00
2018-05-23T18:07:54.112Z,21.00
2018-05-23T18:10:22.506Z,21.00
2018-05-23T18:12:50.225Z,21.00
2018-05-23T18:15:17.914Z,20.90
2018-05-23T18:17:46.434Z,20.50
2018-05-23T18:20:14.119Z,20.50
2018-05-23T18:22:42.688Z,19.90
2018-05-23T18:25:10.376Z,19.90
2018-05-23T18:27:38.947Z,19.60
2018-05-23T18:30:06.701Z,19.60
2018-05-23T18:32:35.381Z,19.30
2018-05-23T18:35:03.258Z,19.20
2018-05-23T18:37:32.001Z,18.80
2018-05-23T18:39:59.886Z,18.80
2018-05-23T18:42:27.747Z,18.40
2018-05-23T18:44:55.649Z,18.00
2018-05-23T18:47:23.518Z,17.60
2018-05-23T18:49:51.396Z,17.20
2018-05-23T18:52:19.131Z,16.90
2018-05-23T18:54:47.111Z,16.70
2018-05-23T18:57:15.732Z,16.20
2018-05-23T18:59:43.669Z,16.20
2018-05-23T19:02:11.528Z,16.10
2018-05-23T19:04:39.423Z,16.00
2018-05-23T19:07:07.250Z,15.90
2018-05-23T19:09:36.015Z,15.90
2018-05-23T19:12:03.777Z,15.90
2018-05-23T19:14:31.515Z,15.90
2018-05-23T19:16:59.294Z,15.90
2018-05-23T19:19:26.983Z,15.90
2018-05-23T19:21:55.410Z,15.90
2018-05-23T19:24:23.071Z,15.90
2018-05-23T19:26:50.762Z,15.80
2018-05-23T19:29:18.475Z,15.80
2018-05-23T19:31:46.225Z,15.80
2018-05-23T19:34:14.634Z,15.70
2018-05-23T19:36:42.296Z,15.70
2018-05-23T19:39:09.983Z,15.70
2018-05-23T19:41:37.894Z,15.70
2018-05-23T19:44:06.454Z,15.60
2018-05-23T19:46:34.266Z,15.60
2018-05-23T19:49:02.319Z,15.60
2018-05-23T19:51:30.942Z,15.50
2018-05-23T19:53:58.722Z,15.50
2018-05-23T19:56:26.588Z,15.50
2018-05-23T19:58:56.015Z,15.50
2018-05-23T20:01:23.711Z,15.40
2018-05-23T20:03:51.430Z,15.40
2018-05-23T20:06:19.842Z,15.30
2018-05-23T20:08:47.569Z,15.30
2018-05-23T20:11:15.976Z,15.40
2018-05-23T20:13:43.682Z,15.30
2018-05-23T20:16:11.358Z,15.40
2018-05-23T20:18:39.026Z,15.40
2018-05-23T20:21:07.256Z,15.50
2018-05-23T20:23:34.913Z,15.50
2018-05-23T20:26:02.608Z,15.50
2018-05-23T20:28:30.305Z,15.50
2018-05-23T20:30:57.957Z,15.50
2018-05-23T20:33:26.378Z,15.50
2018-05-23T20:35:54.049Z,15.50
2018-05-23T20:38:21.683Z,15.50
2018-05-23T20:40:49.888Z,15.50
2018-05-23T20:43:17.656Z,15.40
2018-05-23T20:45:46.368Z,15.40
2018-05-23T20:48:14.908Z,15.40
2018-05-23T20:50:42.806Z,15.30
2018-05-23T20:53:11.658Z,15.40
2018-05-23T20:55:39.596Z,15.40
2018-05-23T20:58:08.808Z,15.40
2018-05-23T21:00:37.123Z,15.40
2018-05-23T21:03:05.657Z,15.40
2018-05-23T21:05:33.344Z,15.40
2018-05-23T21:08:02.006Z,15.40
2018-05-23T21:10:29.828Z,15.40
2018-05-23T21:13:01.448Z,15.40
2018-05-23T21:15:29.120Z,15.40
2018-05-23T21:17:56.797Z,15.40
2018-05-23T21:20:25.246Z,15.50
2018-05-23T21:22:52.975Z,15.50
2018-05-23T21:25:20.683Z,15.50
2018-05-23T21:27:49.412Z,15.50
2018-05-23T21:30:17.116Z,15.50
2018-05-23T21:32:44.840Z,15.50
2018-05-23T21:35:12.584Z,15.50
2018-05-23T21:37:40.251Z,15.50
2018-05-23T21:40:07.898Z,15.40
2018-05-23T21:42:36.354Z,15.50
2018-05-23T21:45:04.035Z,15.40
2018-05-23T21:47:32.492Z,15.40
2018-05-23T21:50:00.164Z,15.40
2018-05-23T21:52:27.915Z,15.40
2018-05-23T21:54:55.544Z,15.40
2018-05-23T21:57:23.227Z,15.30
2018-05-23T21:59:51.010Z,15.30
2018-05-23T22:02:19.413Z,15.30
2018-05-23T22:04:47.083Z,15.30
2018-05-23T22:07:14.716Z,15.30
2018-05-23T22:09:43.146Z,15.20
2018-05-23T22:12:10.783Z,15.20
2018-05-23T22:14:38.466Z,15.20
2018-05-23T22:17:06.131Z,15.20
2018-05-23T22:19:33.789Z,15.30
2018-05-23T22:22:01.418Z,15.30
2018-05-23T22:24:29.151Z,15.20
2018-05-23T22:26:56.798Z,15.20
2018-05-23T22:29:24.437Z,15.20
2018-05-23T22:31:52.125Z,15.20
2018-05-23T22:34:19.791Z,15.20
2018-05-23T22:36:48.230Z,15.20
2018-05-23T22:39:15.882Z,15.20
2018-05-23T22:41:43.556Z,15.20
2018-05-23T22:44:11.222Z,15.20
2018-05-23T22:46:38.907Z,15.20
2018-05-23T22:49:07.303Z,15.20
2018-05-23T22:51:34.981Z,15.20
2018-05-23T22:54:02.611Z,15.20
2018-05-23T22:56:31.037Z,15.10
2018-05-23T22:58:58.754Z,15.10
2018-05-23T23:01:26.401Z,15.10
2018-05-23T23:03:54.081Z,15.10
2018-05-23T23:06:22.527Z,14.90
2018-05-23T23:08:50.187Z,14.90
2018-05-23T23:11:18.597Z,14.80
2018-05-23T23:13:46.264Z,14.80
2018-05-23T23:16:13.896Z,14.80
2018-05-23T23:18:41.577Z,14.80
2018-05-23T23:21:09.993Z,14.70
2018-05-23T23:23:37.671Z,14.70
2018-05-23T23:26:05.348Z,14.70
2018-05-23T23:28:32.999Z,14.70
2018-05-23T23:31:00.666Z,14.70
2018-05-23T23:33:28.292Z,14.60
2018-05-23T23:35:55.943Z,14.60
2018-05-23T23:38:23.593Z,14.60
2018-05-23T23:40:51.259Z,14.60
2018-05-23T23:43:18.890Z,14.70
2018-05-23T23:45:47.318Z,14.70
2018-05-23T23:48:14.991Z,14.70
2018-05-23T23:50:42.661Z,14.70
2018-05-23T23:53:10.298Z,14.70
2018-05-23T23:55:38.014Z,14.70
2018-05-23T23:58:06.438Z,14.70
